createdAt,value
2018-11-23T00:01:54.412Z,111.33
2018-11-23T00:04:23.307Z,119.90
2018-11-23T00:06:52.221Z,106.30
2018-11-23T00:09:21.708Z,95.17
2018-11-23T00:11:50.523Z,79.60
2018-11-23T00:14:19.405Z,81.30
2018-11-23T00:16:48.271Z,86.63
2018-11-23T00:19:17.100Z,75.83
2018-11-23T00:21:45.842Z,71.63
2018-11-23T00:24:14.677Z,79.53
2018-11-23T00:26:43.482Z,66.73
2018-11-23T00:29:12.308Z,68.30
2018-11-23T00:31:41.072Z,67.20
2018-11-23T00:34:09.832Z,70.17
2018-11-23T00:36:38.651Z,67.10
2018-11-23T00:39:08.224Z,67.77
2018-11-23T00:41:37.400Z,76.83
2018-11-23T00:44:06.781Z,59.20
2018-11-23T00:46:35.619Z,75.50
2018-11-23T00:49:04.438Z,78.80
2018-11-23T00:51:33.242Z,66.70
2018-11-23T00:54:02.105Z,60.90
2018-11-23T00:56:30.906Z,66.73
2018-11-23T00:58:59.733Z,62.13
2018-11-23T01:01:32.042Z,47.83
2018-11-23T01:04:00.857Z,44.93
2018-11-23T01:06:29.777Z,38.87
2018-11-23T01:08:58.570Z,44.33
2018-11-23T01:11:27.764Z,40.90
2018-11-23T01:13:56.605Z,39.00
2018-11-23T01:16:25.455Z,36.37
2018-11-23T01:18:54.226Z,38.53
2018-11-23T01:21:27.813Z,41.60
2018-11-23T01:23:56.619Z,35.30
2018-11-23T01:26:25.490Z,36.33
2018-11-23T01:28:54.913Z,32.23
2018-11-23T01:31:23.775Z,29.23
2018-11-23T01:33:52.574Z,28.97
2018-11-23T01:36:21.438Z,31.70
2018-11-23T01:38:56.792Z,26.27
2018-11-23T01:41:25.584Z,23.50
2018-11-23T01:43:54.348Z,27.23
2018-11-23T01:46:23.142Z,25.10
2018-11-23T01:48:51.933Z,23.97
2018-11-23T01:51:20.676Z,26.27
2018-11-23T01:53:49.438Z,23.33
2018-11-23T01:56:18.347Z,26.87
2018-11-23T01:58:47.194Z,26.20
2018-11-23T02:01:16.009Z,23.67
2018-11-23T02:03:44.807Z,30.10
2018-11-23T02:06:13.602Z,31.47
2018-11-23T02:08:42.382Z,27.27
2018-11-23T02:11:11.168Z,26.23
2018-11-23T02:13:39.970Z,30.57
2018-11-23T02:16:08.744Z,24.33
2018-11-23T02:18:37.581Z,22.20
2018-11-23T02:21:06.686Z,26.90
2018-11-23T02:23:35.528Z,26.27
2018-11-23T02:26:04.455Z,21.77
2018-11-23T02:28:33.307Z,22.33
2018-11-23T02:31:08.485Z,25.13
2018-11-23T02:33:39.653Z,23.27
2018-11-23T02:36:09.432Z,23.57
2018-11-23T02:38:38.352Z,28.73
2018-11-23T02:41:07.081Z,27.07
2018-11-23T02:43:35.854Z,24.00
2018-11-23T02:46:05.005Z,28.43
2018-11-23T02:48:33.769Z,35.70
2018-11-23T02:51:02.591Z,39.13
2018-11-23T02:53:31.349Z,38.87
2018-11-23T02:56:00.127Z,32.50
2018-11-23T02:58:28.927Z,34.50
2018-11-23T03:00:57.738Z,40.77
2018-11-23T03:03:26.592Z,38.97
2018-11-23T03:05:55.386Z,42.07
2018-11-23T03:08:24.148Z,36.13
2018-11-23T03:10:53.008Z,28.17
2018-11-23T03:13:21.934Z,29.67
2018-11-23T03:15:50.760Z,30.33
2018-11-23T03:18:19.617Z,27.30
2018-11-23T03:20:48.576Z,50.07
2018-11-23T03:23:17.414Z,46.50
2018-11-23T03:25:46.262Z,36.67
2018-11-23T03:28:15.059Z,34.13
2018-11-23T03:30:44.275Z,37.70
2018-11-23T03:33:13.061Z,28.00
2018-11-23T03:35:42.075Z,30.23
2018-11-23T03:38:11.701Z,28.70
2018-11-23T03:40:40.561Z,25.13
2018-11-23T03:43:09.403Z,33.73
2018-11-23T03:45:39.364Z,30.93
2018-11-23T03:48:08.619Z,33.63
2018-11-23T03:50:37.479Z,34.60
2018-11-23T03:53:06.351Z,27.23
2018-11-23T03:55:35.171Z,30.80
2018-11-23T03:58:04.059Z,36.33
2018-11-23T04:00:32.802Z,28.67
2018-11-23T04:03:01.570Z,27.73
2018-11-23T04:05:30.533Z,27.53
2018-11-23T04:07:59.449Z,24.87
2018-11-23T04:10:28.293Z,31.30
2018-11-23T04:12:57.080Z,28.00
2018-11-23T04:15:25.964Z,35.80
2018-11-23T04:17:54.827Z,29.70
2018-11-23T04:20:23.620Z,28.70
2018-11-23T04:22:52.436Z,25.90
2018-11-23T04:25:21.232Z,25.50
2018-11-23T04:27:50.650Z,26.57
2018-11-23T04:30:20.416Z,30.17
2018-11-23T04:32:49.419Z,29.37
2018-11-23T04:35:22.018Z,28.17
2018-11-23T04:37:53.619Z,27.10
2018-11-23T04:40:22.524Z,32.63
2018-11-23T04:42:51.369Z,44.93
2018-11-23T04:45:20.403Z,43.40
2018-11-23T04:47:49.215Z,47.97
2018-11-23T04:50:18.177Z,42.20
2018-11-23T04:52:47.021Z,44.37
2018-11-23T04:55:15.879Z,30.73
2018-11-23T04:57:45.005Z,33.30
2018-11-23T05:00:16.089Z,29.87
2018-11-23T05:02:45.501Z,30.47
2018-11-23T05:05:14.685Z,25.27
2018-11-23T05:07:45.262Z,32.17
2018-11-23T05:10:15.135Z,25.10
2018-11-23T05:12:45.667Z,26.67
2018-11-23T05:15:16.010Z,28.13
2018-11-23T05:17:44.996Z,36.83
2018-11-23T05:20:14.495Z,32.03
2018-11-23T05:22:43.612Z,29.40
2018-11-23T05:25:13.365Z,31.97
2018-11-23T05:27:42.211Z,30.13
2018-11-23T05:30:14.514Z,32.67
2018-11-23T05:32:43.946Z,28.97
2018-11-23T05:35:14.158Z,27.87
2018-11-23T05:37:43.036Z,30.00
2018-11-23T05:40:14.428Z,28.60
2018-11-23T05:42:44.145Z,26.73
2018-11-23T05:45:18.261Z,30.07
2018-11-23T05:47:47.318Z,29.13
2018-11-23T05:50:17.998Z,32.30
2018-11-23T05:52:46.981Z,39.93
2018-11-23T05:55:15.764Z,42.23
2018-11-23T05:57:44.654Z,44.77
2018-11-23T06:00:17.990Z,38.33
2018-11-23T06:02:48.099Z,46.37
2018-11-23T06:05:17.077Z,42.03
2018-11-23T06:07:45.906Z,43.40
2018-11-23T06:10:16.380Z,40.93
2018-11-23T06:12:45.173Z,43.87
2018-11-23T06:15:16.368Z,41.23
2018-11-23T06:17:45.641Z,42.97
2018-11-23T06:20:16.193Z,44.93
2018-11-23T06:22:46.070Z,35.90
2018-11-23T06:25:48.286Z,38.50
2018-11-23T06:28:17.131Z,44.43
2018-11-23T06:30:46.024Z,46.10
2018-11-23T06:33:32.329Z,49.87
2018-11-23T06:36:01.202Z,43.10
2018-11-23T06:38:30.358Z,54.87
2018-11-23T06:40:59.444Z,53.17
2018-11-23T06:43:28.359Z,59.30
2018-11-23T06:45:58.108Z,57.33
2018-11-23T06:48:27.026Z,62.30
2018-11-23T06:50:56.235Z,51.13
2018-11-23T06:53:25.229Z,54.63
2018-11-23T06:55:54.248Z,46.57
2018-11-23T06:58:23.312Z,43.90
2018-11-23T07:00:52.145Z,40.53
2018-11-23T07:03:20.957Z,48.20
2018-11-23T07:05:49.804Z,46.50
2018-11-23T07:08:18.619Z,58.70
2018-11-23T07:10:47.536Z,53.23
2018-11-23T07:13:16.413Z,56.20
2018-11-23T07:15:45.610Z,67.40
2018-11-23T07:18:14.422Z,63.37
2018-11-23T07:20:43.280Z,60.40
2018-11-23T07:23:12.099Z,64.73
2018-11-23T07:25:40.844Z,59.50
2018-11-23T07:28:15.468Z,62.27
2018-11-23T07:30:38.646Z,62.03
2018-11-23T07:33:07.519Z,62.57
2018-11-23T07:35:36.373Z,61.47
2018-11-23T07:38:05.549Z,60.73
2018-11-23T07:40:46.855Z,67.97
2018-11-23T07:43:15.748Z,64.37
2018-11-23T07:45:44.615Z,69.07
2018-11-23T07:48:13.489Z,66.17
2018-11-23T07:50:42.327Z,69.83
2018-11-23T07:53:11.509Z,59.40
2018-11-23T07:55:40.343Z,64.97
2018-11-23T07:58:10.005Z,62.03
2018-11-23T08:00:38.858Z,62.60
2018-11-23T08:03:07.657Z,57.90
2018-11-23T08:05:36.510Z,62.80
2018-11-23T08:08:06.384Z,62.13
2018-11-23T08:10:34.344Z,59.37
2018-11-23T08:13:03.207Z,55.37
2018-11-23T08:15:32.026Z,57.17
2018-11-23T08:18:00.852Z,55.47
2018-11-23T08:20:29.707Z,64.43
2018-11-23T08:22:58.551Z,54.57
2018-11-23T08:25:27.505Z,56.57
2018-11-23T08:27:57.227Z,59.27
2018-11-23T08:30:28.352Z,59.43
2018-11-23T08:32:57.534Z,52.73
2018-11-23T08:35:26.367Z,60.23
2018-11-23T08:37:55.155Z,63.93
2018-11-23T08:40:25.374Z,69.37
2018-11-23T08:42:54.733Z,69.50
2018-11-23T08:45:24.854Z,65.50
2018-11-23T08:47:53.712Z,71.90
2018-11-23T08:50:24.720Z,80.90
2018-11-23T08:52:53.577Z,86.20
2018-11-23T08:55:22.681Z,78.47
2018-11-23T08:57:51.561Z,81.90
2018-11-23T09:00:28.064Z,71.63
2018-11-23T09:02:58.584Z,64.87
2018-11-23T09:05:27.492Z,62.70
2018-11-23T09:07:57.110Z,73.30
2018-11-23T09:10:27.600Z,70.40
2018-11-23T09:12:58.002Z,70.37
2018-11-23T09:15:26.880Z,69.73
2018-11-23T09:17:55.738Z,71.47
2018-11-23T09:20:24.646Z,73.10
2018-11-23T09:22:53.465Z,67.00
2018-11-23T09:25:23.337Z,73.27
2018-11-23T09:27:52.197Z,73.47
2018-11-23T09:30:23.447Z,69.13
2018-11-23T09:32:53.123Z,68.07
2018-11-23T09:35:21.955Z,72.07
2018-11-23T09:37:51.288Z,66.90
2018-11-23T09:40:21.724Z,70.60
2018-11-23T09:42:50.870Z,67.00
2018-11-23T09:45:22.038Z,69.13
2018-11-23T09:47:52.269Z,71.87
2018-11-23T09:50:22.225Z,69.37
2018-11-23T09:52:52.302Z,72.07
2018-11-23T09:55:21.810Z,72.23
2018-11-23T09:57:50.640Z,62.33
2018-11-23T10:00:21.541Z,58.87
2018-11-23T10:02:51.527Z,61.07
2018-11-23T10:05:22.125Z,64.73
2018-11-23T10:07:52.409Z,63.37
2018-11-23T10:10:21.956Z,66.17
2018-11-23T10:12:51.149Z,62.67
2018-11-23T10:15:20.689Z,64.97
2018-11-23T10:17:49.573Z,64.10
2018-11-23T10:20:20.792Z,64.37
2018-11-23T10:22:49.626Z,63.43
2018-11-23T10:25:21.807Z,66.90
2018-11-23T10:27:50.620Z,65.30
2018-11-23T10:30:22.255Z,70.57
2018-11-23T10:32:52.271Z,63.80
2018-11-23T10:35:23.941Z,71.67
2018-11-23T10:37:54.581Z,67.87
2018-11-23T10:40:24.684Z,76.27
2018-11-23T10:42:53.507Z,69.83
2018-11-23T10:45:24.887Z,70.33
2018-11-23T10:47:54.381Z,68.23
2018-11-23T10:50:24.507Z,64.87
2018-11-23T10:52:53.351Z,63.63
2018-11-23T10:55:23.553Z,65.53
2018-11-23T10:57:52.956Z,66.60
2018-11-23T11:00:27.094Z,70.20
2018-11-23T11:03:01.355Z,63.33
2018-11-23T11:05:35.388Z,64.33
2018-11-23T11:08:04.989Z,66.60
2018-11-23T11:10:33.785Z,64.17
2018-11-23T11:13:02.664Z,65.50
2018-11-23T11:15:31.617Z,64.73
2018-11-23T11:18:00.379Z,59.57
2018-11-23T11:20:29.176Z,63.40
2018-11-23T11:22:57.943Z,67.23
2018-11-23T11:25:26.798Z,66.73
2018-11-23T11:27:55.574Z,73.07
2018-11-23T11:30:24.427Z,66.70
2018-11-23T11:32:53.235Z,72.33
2018-11-23T11:35:22.024Z,70.23
2018-11-23T11:37:50.875Z,70.27
2018-11-23T11:40:20.733Z,70.50
2018-11-23T11:42:49.497Z,80.67
2018-11-23T11:45:19.209Z,73.63
2018-11-23T11:47:48.499Z,67.50
2018-11-23T11:50:17.394Z,69.97
2018-11-23T11:52:47.710Z,72.70
2018-11-23T11:55:17.946Z,65.90
2018-11-23T11:57:47.505Z,68.17
2018-11-23T12:00:19.801Z,70.27
2018-11-23T12:02:48.920Z,72.03
2018-11-23T12:05:18.350Z,71.57
2018-11-23T12:07:47.196Z,73.97
2018-11-23T12:10:22.248Z,71.63
2018-11-23T12:12:51.693Z,74.40
2018-11-23T12:15:20.519Z,64.60
2018-11-23T12:17:49.362Z,69.00
2018-11-23T12:20:20.680Z,70.43
2018-11-23T12:22:49.694Z,80.20
2018-11-23T12:25:19.216Z,71.07
2018-11-23T12:27:48.049Z,71.53
2018-11-23T12:30:18.268Z,71.27
2018-11-23T12:32:48.317Z,69.30
2018-11-23T12:35:18.008Z,71.03
2018-11-23T12:37:46.922Z,66.17
2018-11-23T12:40:17.318Z,69.20
2018-11-23T12:42:46.767Z,70.70
2018-11-23T12:45:17.366Z,66.97
2018-11-23T12:47:46.311Z,69.30
2018-11-23T12:50:17.293Z,69.17
2018-11-23T12:52:46.283Z,78.53
2018-11-23T12:55:15.616Z,68.73
2018-11-23T12:57:44.577Z,73.63
2018-11-23T13:00:29.705Z,71.57
2018-11-23T13:03:00.076Z,77.43
2018-11-23T13:05:29.792Z,66.40
2018-11-23T13:07:59.927Z,71.07
2018-11-23T13:10:29.126Z,69.93
2018-11-23T13:12:58.579Z,72.77
2018-11-23T13:15:27.568Z,66.70
2018-11-23T13:17:56.928Z,77.33
2018-11-23T13:20:25.779Z,70.03
2018-11-23T13:22:54.658Z,83.93
2018-11-23T13:25:25.081Z,72.60
2018-11-23T13:27:53.973Z,69.03
2018-11-23T13:30:24.360Z,74.13
2018-11-23T13:32:53.393Z,74.23
2018-11-23T13:35:22.616Z,74.70
2018-11-23T13:37:51.458Z,68.43
2018-11-23T13:40:22.479Z,80.40
2018-11-23T13:42:51.947Z,81.90
2018-11-23T13:45:22.159Z,78.73
2018-11-23T13:47:51.019Z,80.97
2018-11-23T13:50:21.115Z,77.30
2018-11-23T13:52:50.936Z,86.30
2018-11-23T13:55:19.773Z,81.47
2018-11-23T13:57:48.599Z,75.77
2018-11-23T14:00:20.430Z,77.17
2018-11-23T14:02:49.391Z,74.10
2018-11-23T14:05:20.385Z,72.67
2018-11-23T14:07:50.526Z,60.00
2018-11-23T14:10:21.154Z,62.23
2018-11-23T14:12:50.386Z,60.67
2018-11-23T14:15:20.748Z,59.40
2018-11-23T14:17:50.588Z,62.53
2018-11-23T14:20:20.090Z,55.10
2018-11-23T14:22:49.316Z,64.03
2018-11-23T14:25:20.891Z,59.30
2018-11-23T14:27:50.899Z,56.77
2018-11-23T14:30:21.584Z,62.47
2018-11-23T14:32:50.654Z,58.83
2018-11-23T14:35:22.712Z,61.87
2018-11-23T14:37:52.253Z,57.20
2018-11-23T14:40:21.125Z,56.60
2018-11-23T14:42:51.163Z,57.90
2018-11-23T14:45:25.868Z,61.67
2018-11-23T14:47:56.049Z,66.83
2018-11-23T14:50:27.569Z,65.10
2018-11-23T14:52:57.122Z,66.37
2018-11-23T14:55:26.886Z,69.13
2018-11-23T14:57:56.597Z,62.93
2018-11-23T15:00:28.828Z,65.70
2018-11-23T15:02:59.162Z,62.83
2018-11-23T15:05:28.047Z,68.90
2018-11-23T15:07:56.934Z,56.13
2018-11-23T15:10:27.127Z,68.47
2018-11-23T15:12:57.358Z,57.33
2018-11-23T15:15:27.657Z,70.40
2018-11-23T15:17:57.160Z,68.23
2018-11-23T15:20:30.773Z,70.40
2018-11-23T15:23:02.030Z,69.13
2018-11-23T15:25:36.261Z,61.70
2018-11-23T15:30:49.869Z,59.50
2018-11-23T15:33:19.285Z,66.03
2018-11-23T15:35:48.122Z,60.80
2018-11-23T15:38:18.543Z,57.97
2018-11-23T15:40:47.601Z,68.10
2018-11-23T15:43:18.299Z,59.50
2018-11-23T15:45:47.190Z,55.27
2018-11-23T15:48:22.341Z,62.90
2018-11-23T15:50:51.135Z,65.80
2018-11-23T15:53:19.925Z,62.83
2018-11-23T15:55:48.783Z,60.40
2018-11-23T15:58:18.459Z,60.10
2018-11-23T16:00:48.577Z,65.30
2018-11-23T16:03:17.877Z,60.67
2018-11-23T16:05:46.697Z,60.13
2018-11-23T16:08:18.340Z,59.50
2018-11-23T16:10:47.561Z,67.50
2018-11-23T16:13:16.394Z,63.27
2018-11-23T16:15:45.287Z,55.93
2018-11-23T16:18:14.345Z,57.53
2018-11-23T16:20:44.800Z,63.80
2018-11-23T16:23:18.094Z,63.90
2018-11-23T16:25:48.027Z,63.77
2018-11-23T16:28:16.930Z,56.33
2018-11-23T16:30:47.227Z,63.73
2018-11-23T16:33:18.878Z,56.23
2018-11-23T16:35:47.714Z,59.27
2018-11-23T16:38:18.320Z,58.23
2018-11-23T16:40:50.922Z,56.73
2018-11-23T16:43:19.814Z,59.03
2018-11-23T16:45:48.929Z,56.27
2018-11-23T16:48:18.629Z,54.40
2018-11-23T16:50:47.554Z,56.03
2018-11-23T16:53:16.431Z,57.30
2018-11-23T16:55:45.291Z,57.07
2018-11-23T16:58:14.616Z,53.27
2018-11-23T17:00:44.882Z,55.23
2018-11-23T17:03:15.116Z,52.63
2018-11-23T17:05:46.383Z,51.80
2018-11-23T17:08:15.356Z,55.90
2018-11-23T17:10:44.291Z,58.23
2018-11-23T17:13:13.084Z,59.70
2018-11-23T17:15:41.903Z,58.63
2018-11-23T17:18:11.859Z,52.20
2018-11-23T17:20:41.300Z,62.60
2018-11-23T17:23:11.129Z,55.17
2018-11-23T17:25:39.966Z,57.90
2018-11-23T17:28:10.976Z,59.63
2018-11-23T17:30:39.074Z,62.37
2018-11-23T17:33:07.930Z,53.30
2018-11-23T17:35:36.818Z,83.20
2018-11-23T17:38:06.210Z,90.80
2018-11-23T17:40:36.741Z,95.47
2018-11-23T17:43:06.159Z,99.40
2018-11-23T17:45:35.171Z,101.47
2018-11-23T17:48:04.029Z,102.57
2018-11-23T17:50:34.189Z,104.63
2018-11-23T17:53:02.996Z,114.47
2018-11-23T17:55:31.829Z,102.63
2018-11-23T17:58:00.681Z,108.33
2018-11-23T18:00:38.505Z,104.90
2018-11-23T18:03:01.906Z,103.00
2018-11-23T18:05:31.634Z,106.10
2018-11-23T18:08:01.126Z,109.30
2018-11-23T18:10:31.276Z,120.53
2018-11-23T18:13:06.695Z,113.27
2018-11-23T18:15:36.012Z,103.77
2018-11-23T18:18:06.456Z,109.47
2018-11-23T18:20:35.593Z,103.10
2018-11-23T18:23:05.502Z,104.33
2018-11-23T18:25:36.101Z,99.13
2018-11-23T18:28:04.966Z,96.47
2018-11-23T18:30:34.869Z,98.13
2018-11-23T18:33:05.456Z,96.70
2018-11-23T18:35:34.297Z,102.33
2018-11-23T18:38:03.129Z,101.30
2018-11-23T18:40:37.131Z,102.20
2018-11-23T18:43:00.911Z,102.60
2018-11-23T18:45:29.762Z,109.23
2018-11-23T18:47:58.570Z,108.77
2018-11-23T18:50:27.336Z,107.33
2018-11-23T18:52:56.123Z,97.07
2018-11-23T18:55:25.016Z,101.50
2018-11-23T18:57:53.875Z,91.77
2018-11-23T19:00:23.023Z,97.53
2018-11-23T19:02:51.829Z,86.53
2018-11-23T19:05:22.966Z,81.13
2018-11-23T19:07:51.717Z,84.37
2018-11-23T19:10:20.622Z,81.50
2018-11-23T19:12:49.481Z,84.20
2018-11-23T19:15:25.348Z,82.17
2018-11-23T19:17:48.105Z,77.27
2018-11-23T19:20:20.272Z,68.93
2018-11-23T19:22:51.331Z,77.60
2018-11-23T19:25:20.188Z,70.40
2018-11-23T19:27:49.059Z,70.77
2018-11-23T19:30:27.716Z,62.33
2018-11-23T19:32:49.008Z,66.03
2018-11-23T19:35:17.971Z,66.90
2018-11-23T19:37:46.912Z,65.00
2018-11-23T19:40:16.728Z,68.37
2018-11-23T19:42:45.835Z,60.60
2018-11-23T19:45:15.727Z,61.90
2018-11-23T19:47:44.709Z,65.80
2018-11-23T19:50:17.141Z,85.70
2018-11-23T19:52:46.127Z,112.13
2018-11-23T19:55:16.331Z,103.00
2018-11-23T19:57:45.127Z,93.70
2018-11-23T20:00:23.150Z,95.13
2018-11-23T20:02:52.095Z,85.77
2018-11-23T20:05:21.076Z,91.97
2018-11-23T20:07:51.524Z,78.27
2018-11-23T20:10:21.721Z,64.93
2018-11-23T20:12:51.964Z,67.40
2018-11-23T20:15:20.981Z,58.40
2018-11-23T20:17:49.788Z,54.17
2018-11-23T20:20:18.673Z,46.57
2018-11-23T20:22:48.476Z,54.80
2018-11-23T20:25:18.612Z,50.93
2018-11-23T20:27:48.457Z,51.53
2018-11-23T20:30:18.195Z,48.00
2018-11-23T20:32:47.413Z,48.73
2018-11-23T20:35:17.337Z,47.23
2018-11-23T20:37:46.178Z,46.63
2018-11-23T20:40:16.078Z,46.53
2018-11-23T20:42:45.103Z,44.63
2018-11-23T20:45:14.542Z,47.70
2018-11-23T20:47:43.405Z,50.90
2018-11-23T20:50:13.988Z,48.07
2018-11-23T20:52:42.784Z,45.50
2018-11-23T20:55:14.503Z,49.00
2018-11-23T20:57:43.331Z,41.50
2018-11-23T21:00:15.856Z,48.10
2018-11-23T21:02:45.195Z,47.17
2018-11-23T21:05:15.198Z,43.77
2018-11-23T21:07:44.001Z,43.13
2018-11-23T21:10:20.080Z,43.27
2018-11-23T21:12:43.951Z,52.57
2018-11-23T21:15:23.379Z,48.47
2018-11-23T21:17:52.276Z,50.90
2018-11-23T21:20:21.175Z,59.00
2018-11-23T21:22:50.026Z,54.97
2018-11-23T21:25:18.817Z,54.90
2018-11-23T21:27:47.619Z,45.17
2018-11-23T21:30:21.245Z,45.43
2018-11-23T21:32:50.446Z,37.20
2018-11-23T21:35:19.832Z,36.03
2018-11-23T21:37:49.114Z,35.00
2018-11-23T21:40:18.333Z,33.47
2018-11-23T21:42:47.260Z,30.30
2018-11-23T21:45:17.004Z,31.90
2018-11-23T21:47:45.870Z,30.43
2018-11-23T21:50:16.701Z,30.53
2018-11-23T21:52:45.585Z,34.30
2018-11-23T21:55:16.546Z,34.20
2018-11-23T21:57:45.745Z,31.07
2018-11-23T22:00:15.952Z,31.77
2018-11-23T22:02:45.267Z,31.60
2018-11-23T22:05:14.127Z,31.73
2018-11-23T22:07:42.984Z,30.00
2018-11-23T22:10:19.263Z,30.10
2018-11-23T22:12:48.157Z,28.47
2018-11-23T22:15:19.303Z,31.60
2018-11-23T22:17:48.599Z,32.17
2018-11-23T22:20:18.507Z,33.90
2018-11-23T22:22:47.337Z,30.77
2018-11-23T22:25:17.551Z,35.43
2018-11-23T22:27:46.418Z,30.90
2018-11-23T22:30:17.569Z,29.07
2018-11-23T22:32:46.448Z,27.87
2018-11-23T22:35:15.255Z,28.77
2018-11-23T22:37:44.538Z,28.50
2018-11-23T22:40:14.900Z,27.97
2018-11-23T22:42:46.483Z,23.80
2018-11-23T22:45:16.051Z,21.53
2018-11-23T22:47:44.986Z,22.20
2018-11-23T22:50:16.045Z,21.87
2018-11-23T22:52:44.856Z,27.90
2018-11-23T22:55:15.161Z,28.97
2018-11-23T22:57:43.995Z,25.03
2018-11-23T23:00:20.276Z,23.87
2018-11-23T23:02:49.745Z,22.10
2018-11-23T23:05:19.594Z,22.30
2018-11-23T23:07:48.386Z,16.57
2018-11-23T23:10:17.225Z,16.80
2018-11-23T23:12:46.032Z,21.50
2018-11-23T23:15:14.844Z,22.13
2018-11-23T23:17:43.747Z,22.40
2018-11-23T23:20:14.783Z,24.90
2018-11-23T23:22:43.696Z,21.40
2018-11-23T23:25:13.561Z,23.40
2018-11-23T23:27:42.352Z,17.47
2018-11-23T23:30:12.319Z,19.43
2018-11-23T23:32:41.175Z,16.97
2018-11-23T23:35:11.221Z,17.43
2018-11-23T23:37:40.394Z,18.00
2018-11-23T23:40:12.077Z,18.80
2018-11-23T23:42:40.882Z,18.47
2018-11-23T23:45:12.431Z,16.90
2018-11-23T23:47:41.324Z,18.93
2018-11-23T23:50:11.506Z,15.90
2018-11-23T23:52:40.329Z,16.33
2018-11-23T23:55:09.925Z,16.27
2018-11-23T23:57:39.525Z,16.03
